Rocky Mount, VA (24151)

1:14 PM EDT on September 04, 2015 (GMT -0400)
Doe Run | | Change Station
CLOSE
Current Station
Personal Weather Station
Location: Rocky Mount, VA
Elevation: 1099 ft
Nearby Weather Stations

Elev 1099 ft 36.97 °N, 79.85 °W | Updated 0 second ago

Clear
Clear
89.2 °F
Feels Like 96 °F
N
0.0
Wind Variable Wind from ESE
Gusts 0.0 mph

Today
High -- | Low -- °F
--% Chance of Precip.
Yesterday
High -- | Low -- °F
Precip. -- in
6:52 AM 7:44 PM
Waning Gibbous, 58% visible
Pressure 30.04 in
Visibility 10.0 miles
Clouds Few 4500 ft
Heat Index 96 °F
Dew Point 72 °F
Humidity 56%
Rainfall 0.00 in
Snow Depth Not available.
UV 9 out of 12
Pollen 8.80 out of 12
Air Quality Not available.
Flu Activity Not available.
METAR KROA 041654Z 03006KT 10SM FEW045 32/19 A3008 RMK AO2 SLP170 T03170189
Pressure 30.04 in
Visibility 10.0 miles
Clouds Few 4500 ft
Heat Index 96 °F
Dew Point 72 °F
Humidity 56%
Rainfall 0.00 in
Snow Depth Not available.
UV 9 out of 12
Pollen 8.80 out of 12
Air Quality Not available.
Flu Activity Not available.
METAR KROA 041654Z 03006KT 10SM FEW045 32/19 A3008 RMK AO2 SLP170 T03170189

10-Day Weather Forecast

×

Almanac

Astronomy

Sep. 04, 2015 Rise Set
Actual Time
Civil Twilight
Nautical Twilight
Astronomical Twilight
Moon
Length of Visible Light
Length of Day
Tomorrow will be .
, % of the Moon is Illuminated

Today's Extremes

State Highs State Lows

Community

WunderPhotos

Upload Photos

1,852,231 photos uploaded!

WunderBlogs® & News

Nearby

Air Quality

  Air Quality AQ Index Pollutant
Not available.

Snow Depth

Station Depth Elevation

Earthquake Activity

City Distance Mag. Time & Date
Minimum magnitude displayed is 2.5.

Coastal Water Temperatures

Place Temperature

Stations

Nearby Weather Stations

Station Location Temp. Windchill Dew Point Humidity Wind Precip. Elev Updated Type